Time;durP1;ratioP1;P1;durP2;ratioP2;P2;SDS_P1;SDS_P2;PMS_P1;PMS_P2;Temp;Humidity;BMP_temperature;BMP_pressure;BME280_temperature;BME280_humidity;BME280_pressure;Samples;Min_cycle;Max_cycle;Signal;HPM_P1;HPM_P2
2023/09/22 00:01:46;;;;;;;2.67;2.30;;;17.10;1.00;;;;;;4997303;28;20304;-52
2023/09/22 00:04:12;;;;;;;3.50;3.10;;;17.10;1.00;;;;;;4997354;28;20512;-51
2023/09/22 00:06:38;;;;;;;4.00;2.83;;;17.10;1.00;;;;;;4996643;28;20190;-51
2023/09/22 00:09:05;;;;;;;4.30;3.23;;;17.10;1.00;;;;;;5000140;28;20188;-52
2023/09/22 00:11:31;;;;;;;3.87;3.13;;;17.00;99.90;;;;;;4998896;28;20199;-53
2023/09/22 00:13:56;;;;;;;5.97;3.70;;;17.00;1.00;;;;;;4998216;28;20577;-51
2023/09/22 00:16:22;;;;;;;4.20;3.80;;;16.90;99.90;;;;;;5001177;28;20456;-51
2023/09/22 00:18:47;;;;;;;5.63;3.33;;;16.90;1.00;;;;;;4996775;28;20189;-52
2023/09/22 00:21:14;;;;;;;5.27;3.30;;;16.90;1.00;;;;;;4996768;28;20237;-50
2023/09/22 00:23:39;;;;;;;4.53;3.80;;;16.90;9.20;;;;;;4996354;28;20340;-51
2023/09/22 00:26:05;;;;;;;4.83;4.00;;;16.80;92.00;;;;;;5001173;28;20441;-52
2023/09/22 00:28:30;;;;;;;5.10;4.60;;;16.70;99.90;;;;;;4997386;28;20236;-51
2023/09/22 00:30:56;;;;;;;5.80;4.33;;;16.70;99.90;;;;;;5000395;28;20277;-51
2023/09/22 00:33:21;;;;;;;4.60;4.20;;;16.70;99.90;;;;;;5000887;28;20222;-52
2023/09/22 00:35:47;;;;;;;7.87;4.90;;;16.70;99.90;;;;;;4996706;28;20663;-51
2023/09/22 00:38:12;;;;;;;5.40;4.87;;;16.70;99.90;;;;;;4996691;28;20204;-51
2023/09/22 00:40:38;;;;;;;6.07;5.47;;;16.70;99.90;;;;;;4996087;28;20223;-50
2023/09/22 00:43:11;;;;;;;8.17;6.00;;;16.70;99.90;;;;;;4996364;28;20192;-50
2023/09/22 00:45:42;;;;;;;9.20;6.40;;;16.70;99.90;;;;;;4996873;28;20199;-51
2023/09/22 00:48:09;;;;;;;7.80;7.00;;;16.60;99.90;;;;;;4996828;28;20451;-51
2023/09/22 00:50:37;;;;;;;8.70;6.87;;;16.60;99.90;;;;;;5000997;28;20456;-50
2023/09/22 00:53:03;;;;;;;11.53;7.50;;;16.70;99.90;;;;;;4996906;28;20448;-50
2023/09/22 00:55:29;;;;;;;10.13;8.47;;;16.60;99.90;;;;;;5001326;28;20518;-51
2023/09/22 00:57:55;;;;;;;10.70;8.77;;;16.50;99.90;;;;;;4996456;28;20453;-51
2023/09/22 01:00:20;;;;;;;8.50;7.70;;;16.50;99.90;;;;;;5004538;28;20222;-52
2023/09/22 01:02:46;;;;;;;8.90;8.00;;;16.50;99.90;;;;;;5002516;28;20191;-49
2023/09/22 01:05:12;;;;;;;9.73;8.73;;;16.50;99.90;;;;;;5000035;28;20189;-50
2023/09/22 01:07:38;;;;;;;12.70;10.27;;;16.40;99.90;;;;;;5001090;28;20231;-50
2023/09/22 01:10:10;;;;;;;11.83;10.10;;;16.40;99.90;;;;;;4995157;28;20194;-52
2023/09/22 01:12:36;;;;;;;14.53;10.90;;;16.40;99.90;;;;;;4996701;28;22064;-51
2023/09/22 01:15:02;;;;;;;12.63;11.17;;;16.40;99.90;;;;;;4996512;28;20506;-52
2023/09/22 01:17:27;;;;;;;12.70;11.50;;;16.40;99.90;;;;;;4999931;28;20192;-53
2023/09/22 01:19:53;;;;;;;15.90;12.30;;;16.40;99.90;;;;;;4999662;28;20270;-51
2023/09/22 01:22:19;;;;;;;14.80;12.97;;;16.50;99.90;;;;;;4998782;28;20684;-50
2023/09/22 01:24:44;;;;;;;14.67;11.33;;;16.50;99.90;;;;;;5001206;28;20656;-52
2023/09/22 01:27:10;;;;;;;14.27;12.67;;;16.40;99.90;;;;;;4996403;28;20493;-52
2023/09/22 01:29:36;;;;;;;14.03;12.27;;;16.50;99.90;;;;;;4996090;28;20196;-51
2023/09/22 01:32:02;;;;;;;11.57;10.10;;;16.50;99.90;;;;;;4996933;28;20196;-51
2023/09/22 01:34:27;;;;;;;9.50;8.50;;;16.50;99.90;;;;;;4999608;28;20658;-55
2023/09/22 01:36:53;;;;;;;7.87;7.10;;;16.50;99.90;;;;;;4996039;28;20533;-51
2023/09/22 01:39:19;;;;;;;7.10;6.50;;;16.40;99.90;;;;;;5001438;28;20194;-52
2023/09/22 01:41:44;;;;;;;8.80;7.90;;;16.40;99.90;;;;;;5000035;28;20221;-51
2023/09/22 01:44:11;;;;;;;8.13;7.33;;;16.40;99.90;;;;;;4999627;28;20216;-52
2023/09/22 01:46:36;;;;;;;9.90;7.43;;;16.30;99.90;;;;;;4995952;28;20252;-52
2023/09/22 01:49:02;;;;;;;7.53;6.83;;;16.30;99.90;;;;;;4995892;28;20478;-52
2023/09/22 01:51:28;;;;;;;8.83;6.57;;;16.30;99.90;;;;;;4995474;28;20219;-52
2023/09/22 01:53:55;;;;;;;6.47;5.80;;;16.20;99.90;;;;;;5002588;28;20588;-52
2023/09/22 01:56:21;;;;;;;5.90;5.40;;;16.20;99.90;;;;;;4999168;28;20223;-52
2023/09/22 01:58:48;;;;;;;5.17;4.70;;;16.10;99.90;;;;;;5000073;28;20432;-51
2023/09/22 02:01:14;;;;;;;5.60;5.10;;;16.10;99.90;;;;;;4999211;28;20856;-52
2023/09/22 02:03:40;;;;;;;8.67;4.67;;;16.20;99.90;;;;;;4999253;28;20529;-52
2023/09/22 02:06:05;;;;;;;4.97;4.50;;;16.20;99.90;;;;;;4999758;28;20189;-51
2023/09/22 02:08:31;;;;;;;5.60;3.80;;;16.30;99.90;;;;;;4999095;28;20202;-52
2023/09/22 02:10:57;;;;;;;4.70;4.30;;;16.20;99.90;;;;;;5001819;28;20629;-51
2023/09/22 02:13:22;;;;;;;4.80;3.67;;;16.20;99.90;;;;;;4999697;28;20191;-52
2023/09/22 02:15:48;;;;;;;4.57;4.17;;;16.10;99.90;;;;;;5000301;28;20217;-52
2023/09/22 02:18:14;;;;;;;4.47;4.13;;;16.10;99.90;;;;;;5003030;28;20193;-51
2023/09/22 02:20:42;;;;;;;4.30;3.90;;;16.10;99.90;;;;;;5003239;28;20274;-52
2023/09/22 02:23:07;;;;;;;6.50;4.20;;;16.10;99.90;;;;;;4998724;28;20316;-51
2023/09/22 02:25:34;;;;;;;4.40;4.10;;;16.10;99.90;;;;;;5003235;28;20863;-52
2023/09/22 02:28:00;;;;;;;9.03;4.57;;;16.10;99.90;;;;;;4998960;28;20188;-51
2023/09/22 02:30:26;;;;;;;4.80;4.40;;;16.00;99.90;;;;;;5004954;28;20454;-52
2023/09/22 02:32:54;;;;;;;4.30;4.00;;;16.00;99.90;;;;;;5005212;28;20278;-52
2023/09/22 02:35:21;;;;;;;28.33;18.53;;;15.90;99.90;;;;;;4999041;28;20538;-52
2023/09/22 02:37:47;;;;;;;5.00;4.10;;;15.90;99.90;;;;;;4998726;28;20447;-52
2023/09/22 02:40:16;;;;;;;4.17;3.77;;;15.90;99.90;;;;;;5000864;28;20484;-52
2023/09/22 02:42:43;;;;;;;4.10;3.70;;;15.90;99.90;;;;;;5000185;28;20204;-53
2023/09/22 02:45:09;;;;;;;5.73;3.53;;;15.90;99.90;;;;;;5006054;28;20443;-52
2023/09/22 02:47:40;;;;;;;6.60;3.47;;;15.80;99.90;;;;;;4998290;28;20471;-51
2023/09/22 02:50:09;;;;;;;3.90;3.60;;;15.80;99.90;;;;;;4998861;28;20500;-51
2023/09/22 02:52:36;;;;;;;4.10;3.80;;;15.80;99.90;;;;;;4998909;28;20803;-53
2023/09/22 02:55:03;;;;;;;4.10;3.60;;;15.70;99.90;;;;;;5002172;28;20522;-51
2023/09/22 02:57:29;;;;;;;5.43;3.70;;;15.60;99.90;;;;;;4998782;28;21048;-50
2023/09/22 02:59:54;;;;;;;4.20;3.33;;;15.60;99.90;;;;;;4998217;28;20524;-52
2023/09/22 03:02:20;;;;;;;3.97;3.60;;;15.60;99.90;;;;;;4998420;28;20897;-52
2023/09/22 03:04:47;;;;;;;3.70;3.40;;;15.60;99.90;;;;;;5000776;28;20271;-52
2023/09/22 03:07:13;;;;;;;5.90;3.80;;;15.50;99.90;;;;;;4997616;28;20943;-51
2023/09/22 03:09:38;;;;;;;3.83;3.50;;;15.50;99.90;;;;;;5003947;28;20470;-51
2023/09/22 03:12:04;;;;;;;4.77;3.30;;;15.50;99.90;;;;;;4998162;28;20518;-51
2023/09/22 03:14:30;;;;;;;7.90;4.10;;;15.40;99.90;;;;;;4998689;28;20220;-50
2023/09/22 03:16:57;;;;;;;3.83;3.53;;;15.40;99.90;;;;;;4999686;28;20479;-52
2023/09/22 03:19:23;;;;;;;5.90;4.27;;;15.30;99.90;;;;;;4997739;28;20243;-51
2023/09/22 03:21:49;;;;;;;3.70;3.40;;;15.40;99.90;;;;;;4998156;28;20511;-52
2023/09/22 03:24:14;;;;;;;5.03;4.30;;;15.40;99.90;;;;;;4997880;28;20243;-51
2023/09/22 03:26:40;;;;;;;5.10;4.60;;;15.40;99.90;;;;;;4998644;28;20203;-51
2023/09/22 03:29:05;;;;;;;5.93;5.10;;;15.30;99.90;;;;;;4997841;28;20652;-50
2023/09/22 03:31:31;;;;;;;5.40;4.90;;;15.30;99.90;;;;;;4997237;28;20632;-51
2023/09/22 03:33:56;;;;;;;5.30;4.80;;;15.30;99.90;;;;;;5001497;28;20195;-51
2023/09/22 03:36:22;;;;;;;5.23;4.50;;;15.30;99.90;;;;;;5002359;28;20191;-51
2023/09/22 03:38:48;;;;;;;6.87;4.90;;;15.30;99.90;;;;;;5001684;28;20196;-52
2023/09/22 03:41:15;;;;;;;5.00;4.03;;;15.20;99.90;;;;;;5000863;28;20239;-51
2023/09/22 03:43:43;;;;;;;5.50;4.60;;;15.10;99.90;;;;;;4999724;28;20501;-50
2023/09/22 03:46:09;;;;;;;4.83;4.40;;;15.00;99.90;;;;;;4997915;28;20907;-51
2023/09/22 03:48:34;;;;;;;5.53;4.43;;;15.00;99.90;;;;;;4997986;28;20470;-51
2023/09/22 03:51:00;;;;;;;5.30;4.80;;;15.00;99.90;;;;;;4996835;28;20535;-51
2023/09/22 03:53:27;;;;;;;5.07;4.57;;;15.00;99.90;;;;;;4999905;28;20215;-52
2023/09/22 03:55:53;;;;;;;5.57;4.37;;;15.00;99.90;;;;;;4997735;28;20333;-50
2023/09/22 03:58:20;;;;;;;5.70;4.90;;;15.00;99.90;;;;;;4996351;28;21369;-52
2023/09/22 04:00:46;;;;;;;5.00;4.40;;;15.00;99.90;;;;;;4997759;28;20221;-51
2023/09/22 04:03:12;;;;;;;4.90;4.40;;;15.00;99.90;;;;;;4999048;28;20451;-51
2023/09/22 04:05:38;;;;;;;8.13;4.77;;;15.10;99.90;;;;;;4998481;28;20446;-51
2023/09/22 04:08:05;;;;;;;6.03;4.50;;;15.10;99.90;;;;;;5002318;28;20810;-52
2023/09/22 04:10:31;;;;;;;5.87;5.00;;;15.10;99.90;;;;;;5000416;28;20440;-50
2023/09/22 04:12:57;;;;;;;5.23;4.73;;;15.10;99.90;;;;;;5001290;28;20450;-51
2023/09/22 04:15:23;;;;;;;6.23;4.80;;;15.10;99.90;;;;;;4999007;28;20443;-52
2023/09/22 04:17:50;;;;;;;5.57;5.07;;;15.10;99.90;;;;;;4999466;28;20287;-50
2023/09/22 04:20:18;;;;;;;7.87;6.23;;;15.10;99.90;;;;;;5001660;28;20515;-51
2023/09/22 04:22:43;;;;;;;11.07;7.73;;;15.10;99.90;;;;;;4997097;28;20538;-52
2023/09/22 04:25:18;;;;;;;7.63;5.27;;;15.10;99.90;;;;;;5001374;28;20454;-51
2023/09/22 04:27:46;;;;;;;8.63;7.10;;;15.00;99.90;;;;;;4996080;28;20724;-51
2023/09/22 04:30:16;;;;;;;8.60;6.90;;;15.00;99.90;;;;;;5004431;28;20803;-51
2023/09/22 04:32:45;;;;;;;8.40;6.90;;;15.10;99.90;;;;;;5001492;28;20887;-51
2023/09/22 04:35:11;;;;;;;10.63;9.13;;;15.10;99.90;;;;;;5002263;28;20508;-51
2023/09/22 04:37:37;;;;;;;12.77;8.87;;;15.10;99.90;;;;;;4999870;28;20436;-51
2023/09/22 04:40:03;;;;;;;9.30;7.37;;;15.20;99.90;;;;;;5000592;28;20561;-51
2023/09/22 04:42:29;;;;;;;9.47;7.93;;;15.10;99.90;;;;;;4997263;28;20519;-51
2023/09/22 04:44:55;;;;;;;12.63;8.60;;;15.10;99.90;;;;;;4996874;28;20554;-51
2023/09/22 04:47:20;;;;;;;9.20;8.03;;;15.10;99.90;;;;;;4996759;28;20188;-51
2023/09/22 04:49:46;;;;;;;10.67;8.10;;;15.10;99.90;;;;;;4996892;28;20450;-51
2023/09/22 04:52:12;;;;;;;13.23;10.10;;;15.10;99.90;;;;;;4996950;28;20519;-52
2023/09/22 04:54:39;;;;;;;12.30;10.10;;;15.10;99.90;;;;;;4999636;28;20576;-52
2023/09/22 04:57:05;;;;;;;16.63;11.67;;;15.20;99.90;;;;;;5000671;28;20454;-51
2023/09/22 04:59:30;;;;;;;14.47;10.07;;;15.20;99.90;;;;;;4999802;28;20794;-51
2023/09/22 05:01:57;;;;;;;15.13;12.97;;;15.30;99.90;;;;;;4995992;28;20630;-52
2023/09/22 05:04:23;;;;;;;15.57;12.40;;;15.30;99.90;;;;;;4998043;28;20197;-51
2023/09/22 05:06:49;;;;;;;18.30;13.20;;;15.30;99.90;;;;;;4996596;28;20501;-51
2023/09/22 05:09:15;;;;;;;16.77;12.70;;;15.30;99.90;;;;;;5002297;28;20943;-51
2023/09/22 05:11:41;;;;;;;18.33;13.13;;;15.20;99.90;;;;;;4998035;28;20440;-51
2023/09/22 05:14:06;;;;;;;17.97;13.40;;;15.20;99.90;;;;;;4996185;28;20278;-51
2023/09/22 05:16:32;;;;;;;19.73;13.60;;;15.20;99.90;;;;;;4996949;28;20188;-51
2023/09/22 05:18:59;;;;;;;19.80;14.20;;;15.20;99.90;;;;;;4996029;28;20183;-51
2023/09/22 05:21:25;;;;;;;19.50;14.27;;;15.20;99.90;;;;;;4996287;28;20277;-52
2023/09/22 05:23:51;;;;;;;19.13;13.90;;;15.30;99.90;;;;;;4996504;28;21031;-51
2023/09/22 05:26:17;;;;;;;21.07;15.07;;;15.20;99.90;;;;;;4996647;28;20245;-51
2023/09/22 05:28:42;;;;;;;26.47;16.43;;;15.20;99.90;;;;;;4998882;28;20310;-51
2023/09/22 05:31:09;;;;;;;20.70;14.70;;;15.20;99.90;;;;;;5002577;28;20530;-50
2023/09/22 05:33:35;;;;;;;18.93;14.47;;;15.30;99.90;;;;;;5001443;28;20220;-52
2023/09/22 05:36:01;;;;;;;21.50;14.90;;;15.20;99.90;;;;;;5004628;28;20477;-51
2023/09/22 05:38:27;;;;;;;21.30;15.73;;;15.20;99.90;;;;;;4999185;28;20453;-50
2023/09/22 05:40:53;;;;;;;24.73;16.07;;;15.20;99.90;;;;;;5005090;28;20907;-52
2023/09/22 05:43:22;;;;;;;26.10;16.53;;;15.20;99.90;;;;;;5001232;28;20275;-52
2023/09/22 05:45:55;;;;;;;21.50;15.50;;;15.30;99.90;;;;;;4999989;28;20196;-51
2023/09/22 05:48:21;;;;;;;22.17;15.90;;;15.30;99.90;;;;;;4999087;28;20948;-51
2023/09/22 05:50:59;;;;;;;22.03;15.60;;;15.20;99.90;;;;;;4999220;28;20537;-54
2023/09/22 05:53:25;;;;;;;26.33;16.70;;;15.30;99.90;;;;;;4998756;28;20471;-52
2023/09/22 05:56:10;;;;;;;21.27;15.73;;;15.50;99.90;;;;;;4999751;28;20490;-51
2023/09/22 05:58:40;;;;;;;21.80;16.20;;;15.60;99.90;;;;;;5000483;28;20435;-52
2023/09/22 06:01:07;;;;;;;21.07;16.47;;;15.70;99.90;;;;;;4999940;28;20510;-52
2023/09/22 06:03:34;;;;;;;20.53;15.83;;;15.70;99.90;;;;;;5001474;28;20470;-51
2023/09/22 06:06:04;;;;;;;22.63;15.93;;;15.70;79.60;;;;;;5002562;28;20443;-51
2023/09/22 06:08:30;;;;;;;22.97;15.23;;;15.70;89.50;;;;;;5006459;28;20446;-52
2023/09/22 06:10:59;;;;;;;23.13;15.60;;;15.70;59.90;;;;;;5006347;28;20437;-52
2023/09/22 06:13:24;;;;;;;17.90;13.73;;;15.80;31.70;;;;;;5006067;28;20246;-53
2023/09/22 06:15:51;;;;;;;21.30;15.40;;;15.90;1.00;;;;;;4999107;28;20829;-52
2023/09/22 06:18:18;;;;;;;22.60;15.37;;;15.90;1.00;;;;;;4999187;28;20191;-50
2023/09/22 06:20:44;;;;;;;20.30;14.67;;;16.00;1.00;;;;;;4998255;28;20488;-52
2023/09/22 06:23:10;;;;;;;19.13;14.67;;;16.00;1.00;;;;;;5012140;28;20484;-52
2023/09/22 06:25:36;;;;;;;18.67;15.00;;;16.00;1.00;;;;;;4996848;28;20422;-52
2023/09/22 06:28:03;;;;;;;23.00;15.53;;;16.00;1.00;;;;;;5003500;28;20181;-53
2023/09/22 06:30:30;;;;;;;19.23;14.50;;;16.00;1.00;;;;;;5015298;28;20274;-52
2023/09/22 06:32:55;;;;;;;21.40;14.77;;;15.90;1.00;;;;;;5016408;28;20435;-52
2023/09/22 06:35:21;;;;;;;21.77;14.40;;;15.90;1.00;;;;;;5016165;28;20434;-53
2023/09/22 06:37:46;;;;;;;19.00;14.80;;;16.00;1.00;;;;;;5015566;28;20534;-52
2023/09/22 06:40:12;;;;;;;20.10;15.00;;;16.00;1.00;;;;;;5014941;28;20227;-52
2023/09/22 06:42:42;;;;;;;19.53;14.20;;;16.00;99.90;;;;;;5015351;28;20216;-52
2023/09/22 06:45:12;;;;;;;19.10;14.60;;;16.00;99.90;;;;;;5016115;28;20852;-53
2023/09/22 06:47:38;;;;;;;20.00;14.40;;;16.00;1.00;;;;;;5015104;28;21022;-52
2023/09/22 06:50:08;;;;;;;17.97;13.80;;;16.10;99.90;;;;;;5016109;28;20438;-51
2023/09/22 06:52:34;;;;;;;18.00;13.80;;;16.20;99.90;;;;;;5015928;28;20481;-52
2023/09/22 06:55:02;;;;;;;18.50;13.63;;;16.20;99.90;;;;;;5015625;28;20518;-52
2023/09/22 06:57:29;;;;;;;14.77;12.57;;;16.20;99.90;;;;;;5014029;28;20485;-53
2023/09/22 06:59:55;;;;;;;17.90;12.43;;;16.20;99.90;;;;;;5014689;28;20494;-50
2023/09/22 07:02:21;;;;;;;19.57;13.20;;;16.20;99.90;;;;;;5016525;28;20451;-52
2023/09/22 07:04:47;;;;;;;13.07;11.57;;;16.20;99.90;;;;;;5015086;28;20525;-51
2023/09/22 07:07:13;;;;;;;16.17;13.13;;;16.30;1.00;;;;;;5015495;28;20503;-52
2023/09/22 07:09:43;;;;;;;17.23;12.40;;;16.40;1.00;;;;;;5014757;28;20191;-52
2023/09/22 07:12:08;;;;;;;13.60;11.47;;;16.40;1.00;;;;;;5015186;28;20258;-53
2023/09/22 07:14:34;;;;;;;23.20;13.17;;;16.40;1.00;;;;;;5014209;28;20899;-53
2023/09/22 07:17:00;;;;;;;13.30;11.80;;;16.40;99.90;;;;;;5007838;28;20182;-53
2023/09/22 07:19:25;;;;;;;14.27;10.83;;;16.30;99.90;;;;;;5014342;28;20196;-52
2023/09/22 07:21:51;;;;;;;13.27;10.60;;;16.30;99.90;;;;;;5013021;28;20216;-53
2023/09/22 07:24:18;;;;;;;17.50;10.30;;;16.20;1.00;;;;;;5002468;28;20724;-54
2023/09/22 07:26:43;;;;;;;13.30;10.77;;;16.30;99.90;;;;;;5004090;28;20194;-52
2023/09/22 07:29:09;;;;;;;25.57;10.90;;;16.30;99.90;;;;;;5000339;28;20450;-53
2023/09/22 07:31:35;;;;;;;14.63;11.20;;;16.40;1.00;;;;;;4998186;28;20214;-52
2023/09/22 07:34:00;;;;;;;16.20;11.87;;;16.30;99.90;;;;;;5002279;28;20189;-53
2023/09/22 07:36:26;;;;;;;13.67;10.60;;;16.40;1.00;;;;;;4997255;28;20196;-52
2023/09/22 07:38:53;;;;;;;14.57;10.70;;;16.40;1.00;;;;;;4997597;28;20215;-51
2023/09/22 07:41:19;;;;;;;13.30;10.10;;;16.50;1.00;;;;;;4996137;28;20505;-51
2023/09/22 07:43:44;;;;;;;11.30;10.20;;;16.50;1.00;;;;;;4997299;28;20942;-53
2023/09/22 07:46:10;;;;;;;10.90;8.90;;;16.40;99.90;;;;;;5008090;28;20188;-51
2023/09/22 07:48:36;;;;;;;11.33;9.60;;;16.50;99.90;;;;;;5002060;28;20939;-52
2023/09/22 07:51:02;;;;;;;13.10;10.70;;;16.50;99.90;;;;;;5001494;28;20264;-53
2023/09/22 07:53:29;;;;;;;14.00;11.33;;;16.70;99.90;;;;;;5002013;28;20444;-53
2023/09/22 07:55:59;;;;;;;11.53;9.43;;;16.90;99.90;;;;;;5007660;28;20481;-51
2023/09/22 07:58:25;;;;;;;11.80;9.63;;;17.00;99.90;;;;;;5000781;28;20868;-52
2023/09/22 08:00:52;;;;;;;10.47;9.10;;;17.00;99.90;;;;;;5001480;28;20480;-52
2023/09/22 08:03:21;;;;;;;10.70;8.20;;;16.90;99.90;;;;;;4999416;28;20440;-53
2023/09/22 08:05:50;;;;;;;10.87;8.90;;;16.90;99.90;;;;;;5000899;28;20449;-52
2023/09/22 08:08:17;;;;;;;13.17;10.57;;;17.00;99.90;;;;;;4996923;28;20522;-51
2023/09/22 08:10:44;;;;;;;13.50;9.90;;;16.90;99.90;;;;;;5003866;28;20443;-51
2023/09/22 08:13:09;;;;;;;12.50;9.30;;;16.80;99.90;;;;;;5001235;28;20435;-54
2023/09/22 08:15:38;;;;;;;12.70;9.27;;;16.80;99.90;;;;;;4998549;28;20960;-53
2023/09/22 08:18:10;;;;;;;11.20;8.87;;;16.90;99.90;;;;;;4997934;28;20193;-51
2023/09/22 08:20:36;;;;;;;10.30;8.73;;;17.00;99.90;;;;;;4997212;28;20483;-50
2023/09/22 08:23:02;;;;;;;9.03;8.13;;;17.20;48.90;;;;;;4997047;28;20468;-53
2023/09/22 08:25:28;;;;;;;9.07;7.60;;;17.40;22.50;;;;;;5001110;28;20980;-53
2023/09/22 08:27:54;;;;;;;10.83;8.57;;;17.80;19.70;;;;;;5001584;28;20453;-52
2023/09/22 08:30:20;;;;;;;11.40;8.60;;;18.10;1.00;;;;;;5001296;28;20452;-53
2023/09/22 08:32:46;;;;;;;9.77;8.50;;;18.20;1.00;;;;;;5004484;28;20663;-52
2023/09/22 08:35:13;;;;;;;10.60;7.70;;;18.10;1.00;;;;;;5002897;28;20189;-51
2023/09/22 08:37:43;;;;;;;11.60;8.37;;;17.80;1.00;;;;;;5000904;28;20459;-49
2023/09/22 08:40:09;;;;;;;10.53;7.90;;;17.50;1.00;;;;;;5001361;28;20451;-54
2023/09/22 08:42:36;;;;;;;9.20;7.27;;;17.30;1.00;;;;;;5003227;28;20449;-52
2023/09/22 08:45:02;;;;;;;7.57;6.87;;;17.30;1.00;;;;;;5001530;28;20443;-53
2023/09/22 08:47:28;;;;;;;8.13;7.00;;;17.60;1.00;;;;;;4999754;28;20827;-52
2023/09/22 08:49:53;;;;;;;11.00;6.70;;;18.60;1.00;;;;;;4999803;28;20445;-53
2023/09/22 08:52:22;;;;;;;7.17;6.13;;;19.30;1.00;;;;;;4997202;28;20196;-54
2023/09/22 08:54:48;;;;;;;7.57;6.53;;;19.30;1.00;;;;;;5001141;28;20214;-53
2023/09/22 08:57:16;;;;;;;8.03;6.30;;;19.00;1.00;;;;;;4998145;28;20938;-55
2023/09/22 08:59:43;;;;;;;8.70;6.43;;;19.10;1.00;;;;;;5000341;28;20444;-54
2023/09/22 09:02:11;;;;;;;6.20;5.60;;;19.20;1.00;;;;;;4997231;28;20974;-53
2023/09/22 09:04:39;;;;;;;6.30;5.70;;;19.40;1.00;;;;;;5006502;28;20545;-53
2023/09/22 09:07:05;;;;;;;7.43;5.80;;;19.50;1.00;;;;;;5006817;28;20445;-53
2023/09/22 09:09:47;;;;;;;9.10;5.90;;;19.20;1.00;;;;;;5009643;28;21402;-52
2023/09/22 09:12:14;;;;;;;7.70;6.80;;;18.90;1.00;;;;;;5003996;28;20496;-54
2023/09/22 09:14:46;;;;;;;6.77;4.60;;;18.90;1.00;;;;;;5009743;28;20454;-51
2023/09/22 09:17:19;;;;;;;5.03;4.37;;;18.80;1.00;;;;;;5007557;28;20462;-52
2023/09/22 09:19:55;;;;;;;8.00;5.77;;;18.60;1.00;;;;;;5008013;28;20448;-52
2023/09/22 09:22:21;;;;;;;5.10;4.60;;;18.40;1.00;;;;;;5008577;28;20562;-52
2023/09/22 09:24:47;;;;;;;4.77;4.30;;;18.30;1.00;;;;;;5005977;28;20451;-52
2023/09/22 09:27:19;;;;;;;6.77;5.23;;;18.10;1.00;;;;;;5000724;28;20453;-49
2023/09/22 09:29:53;;;;;;;4.70;4.30;;;18.00;1.00;;;;;;5002578;28;20196;-51
2023/09/22 09:32:36;;;;;;;4.40;4.00;;;17.80;1.00;;;;;;5002075;28;20444;-51
2023/09/22 09:35:03;;;;;;;6.40;4.70;;;17.90;1.00;;;;;;5003661;28;20446;-51
2023/09/22 09:37:29;;;;;;;6.00;4.80;;;17.80;1.00;;;;;;5004274;28;20459;-53
2023/09/22 09:39:58;;;;;;;4.73;3.80;;;18.00;1.00;;;;;;4999921;28;21828;-51
2023/09/22 09:42:25;;;;;;;9.03;5.10;;;18.20;1.00;;;;;;5002880;28;20194;-51
2023/09/22 09:44:54;;;;;;;8.57;4.63;;;18.40;1.00;;;;;;5006439;28;20431;-52
2023/09/22 09:47:30;;;;;;;7.40;5.10;;;18.50;1.00;;;;;;5001767;28;20515;-52
2023/09/22 09:49:57;;;;;;;6.10;4.40;;;18.60;1.00;;;;;;5004061;28;20460;-52
2023/09/22 09:52:51;;;;;;;5.17;4.10;;;18.70;1.00;;;;;;5006980;28;20514;-52
2023/09/22 09:55:20;;;;;;;4.73;4.13;;;18.60;1.00;;;;;;5003195;28;20966;-49
2023/09/22 09:57:46;;;;;;;4.87;4.30;;;18.50;1.00;;;;;;5007746;28;20500;-52
2023/09/22 10:00:14;;;;;;;4.30;3.90;;;18.30;1.00;;;;;;5004714;28;20435;-51
2023/09/22 10:02:45;;;;;;;4.93;4.07;;;18.30;1.00;;;;;;5003720;28;20443;-50
2023/09/22 10:05:19;;;;;;;6.30;4.10;;;18.60;1.00;;;;;;5006558;28;20445;-52
2023/09/22 10:07:46;;;;;;;6.60;4.67;;;18.70;1.00;;;;;;5002876;28;20437;-49
2023/09/22 10:10:13;;;;;;;8.20;5.23;;;18.80;1.00;;;;;;5003267;28;20963;-48
2023/09/22 10:12:40;;;;;;;5.80;4.40;;;18.80;1.00;;;;;;5000041;28;20437;-49
2023/09/22 10:15:07;;;;;;;9.53;4.57;;;19.20;1.00;;;;;;4997619;28;20465;-50
2023/09/22 10:17:33;;;;;;;4.37;3.97;;;19.60;1.00;;;;;;5002441;28;20446;-49
2023/09/22 10:20:06;;;;;;;12.67;4.27;;;19.60;1.00;;;;;;4999657;28;20468;-50
2023/09/22 10:22:35;;;;;;;5.63;3.87;;;19.40;1.00;;;;;;5009491;28;20539;-49
2023/09/22 10:25:12;;;;;;;4.63;3.43;;;19.10;1.00;;;;;;5005268;28;21001;-50
2023/09/22 10:27:57;;;;;;;3.00;2.77;;;19.10;1.00;;;;;;5005106;28;20453;-50
2023/09/22 10:30:43;;;;;;;3.73;3.10;;;19.20;1.00;;;;;;5003450;28;20440;-50
2023/09/22 10:33:27;;;;;;;5.43;3.60;;;19.30;1.00;;;;;;5000163;28;20541;-50
2023/09/22 10:35:56;;;;;;;5.80;3.13;;;19.30;1.00;;;;;;5003210;28;20533;-51
2023/09/22 10:38:22;;;;;;;5.63;2.67;;;19.00;1.00;;;;;;5008451;28;20455;-50
2023/09/22 10:41:00;;;;;;;4.80;2.43;;;19.10;1.00;;;;;;5006319;28;20482;-50
2023/09/22 10:43:36;;;;;;;5.13;2.40;;;19.20;1.00;;;;;;4998663;28;20274;-51
2023/09/22 10:46:02;;;;;;;5.53;2.40;;;19.20;1.00;;;;;;5004748;28;20496;-52
2023/09/22 10:48:37;;;;;;;7.77;2.20;;;19.30;1.00;;;;;;4998332;28;20442;-53
2023/09/22 10:51:05;;;;;;;5.77;2.30;;;19.70;1.00;;;;;;5008687;28;20564;-51
2023/09/22 10:53:34;;;;;;;3.50;2.50;;;21.00;1.00;;;;;;5005220;28;20446;-51
2023/09/22 10:56:03;;;;;;;6.10;2.27;;;22.30;1.00;;;;;;4997830;28;20451;-52
2023/09/22 10:58:28;;;;;;;7.07;2.63;;;22.80;1.00;;;;;;5002138;28;20955;-51
2023/09/22 11:00:54;;;;;;;7.10;2.70;;;23.40;1.00;;;;;;5009113;28;20612;-52
2023/09/22 11:03:20;;;;;;;2.67;2.00;;;23.00;1.00;;;;;;5003062;28;20546;-51
2023/09/22 11:06:06;;;;;;;5.27;2.40;;;22.10;1.00;;;;;;5009150;28;20184;-52
2023/09/22 11:08:32;;;;;;;6.73;3.07;;;21.50;1.00;;;;;;5010373;28;20184;-52
2023/09/22 11:10:58;;;;;;;6.13;2.90;;;21.30;1.00;;;;;;5001913;28;20442;-51
2023/09/22 11:13:24;;;;;;;4.30;2.43;;;21.10;1.00;;;;;;5001842;28;20440;-52
2023/09/22 11:15:57;;;;;;;2.63;2.20;;;20.60;1.00;;;;;;5002840;28;20216;-51
2023/09/22 11:18:24;;;;;;;3.53;2.63;;;20.00;1.00;;;;;;5003701;28;20194;-51
2023/09/22 11:20:57;;;;;;;5.13;2.40;;;20.20;1.00;;;;;;5002138;28;20838;-53
2023/09/22 11:23:24;;;;;;;7.37;2.63;;;21.00;1.00;;;;;;4998520;28;20484;-52
2023/09/22 11:25:58;;;;;;;6.23;2.73;;;22.00;1.00;;;;;;4997743;28;20447;-52
2023/09/22 11:28:24;;;;;;;5.33;2.67;;;22.80;1.00;;;;;;4998163;28;20436;-53
2023/09/22 11:30:53;;;;;;;4.30;2.87;;;22.90;1.00;;;;;;4998380;28;20443;-52
2023/09/22 11:33:19;;;;;;;6.30;3.33;;;22.40;1.00;;;;;;5004606;28;20198;-51
2023/09/22 11:35:45;;;;;;;3.97;3.13;;;22.50;1.00;;;;;;5005496;28;20443;-52
2023/09/22 11:38:29;;;;;;;3.80;2.83;;;22.70;1.00;;;;;;4997900;28;20217;-51
2023/09/22 11:41:10;;;;;;;8.17;3.33;;;22.20;1.00;;;;;;5007055;28;20227;-52
2023/09/22 11:43:48;;;;;;;12.93;3.73;;;21.60;1.00;;;;;;5004172;28;20814;-52
2023/09/22 11:46:27;;;;;;;5.90;3.60;;;20.90;1.00;;;;;;5004857;28;20475;-52
2023/09/22 11:49:05;;;;;;;7.17;4.10;;;20.50;1.00;;;;;;5002123;28;20526;-52
2023/09/22 11:51:43;;;;;;;9.80;3.90;;;20.20;1.00;;;;;;5003818;28;21006;-53
2023/09/22 11:54:10;;;;;;;6.67;3.63;;;20.30;1.00;;;;;;5001976;28;20768;-52
2023/09/22 11:56:36;;;;;;;3.63;3.03;;;21.30;1.00;;;;;;5001107;28;20439;-52
2023/09/22 11:59:13;;;;;;;4.40;3.03;;;22.60;1.00;;;;;;4998120;28;20443;-52
2023/09/22 12:01:39;;;;;;;7.13;3.23;;;23.20;1.00;;;;;;5001009;28;20230;-51
2023/09/22 12:04:05;;;;;;;7.53;3.27;;;23.10;1.00;;;;;;5011824;28;20539;-52
2023/09/22 12:06:34;;;;;;;4.80;2.90;;;23.10;1.00;;;;;;5002394;28;20578;-51
2023/09/22 12:09:00;;;;;;;5.23;3.07;;;22.50;1.00;;;;;;5003734;28;20435;-51
2023/09/22 12:11:26;;;;;;;3.87;3.10;;;22.00;1.00;;;;;;5000471;28;20526;-51
2023/09/22 12:13:52;;;;;;;3.80;3.07;;;21.60;1.00;;;;;;4997169;28;20181;-53
2023/09/22 12:16:17;;;;;;;6.17;3.50;;;21.10;1.00;;;;;;4997068;28;20446;-54
2023/09/22 12:18:43;;;;;;;7.00;3.90;;;20.70;1.00;;;;;;5001081;28;20322;-55
2023/09/22 12:21:08;;;;;;;7.77;3.70;;;20.40;1.00;;;;;;5000465;28;20279;-53
2023/09/22 12:23:34;;;;;;;4.83;3.33;;;20.20;1.00;;;;;;4997793;28;20250;-53
2023/09/22 12:26:01;;;;;;;4.40;3.70;;;20.50;1.00;;;;;;5003378;28;20180;-51
2023/09/22 12:28:26;;;;;;;3.93;3.50;;;21.50;1.00;;;;;;4998765;28;20196;-53
2023/09/22 12:30:52;;;;;;;4.53;3.17;;;22.00;1.00;;;;;;4999788;28;20783;-50
2023/09/22 12:33:18;;;;;;;4.50;2.70;;;22.20;1.00;;;;;;5005367;28;20234;-51
2023/09/22 12:35:44;;;;;;;5.07;2.87;;;22.90;1.00;;;;;;4997223;28;20198;-50
2023/09/22 12:38:09;;;;;;;2.97;2.60;;;23.30;1.00;;;;;;4998462;28;20223;-50
2023/09/22 12:40:36;;;;;;;4.17;2.77;;;23.70;1.00;;;;;;5006850;28;20561;-52
2023/09/22 12:43:02;;;;;;;7.27;2.37;;;24.60;1.00;;;;;;4996819;28;20188;-51
2023/09/22 12:45:30;;;;;;;4.50;2.80;;;24.80;1.00;;;;;;5000140;28;20499;-50
2023/09/22 12:47:56;;;;;;;3.03;2.53;;;24.10;1.00;;;;;;4996746;28;20471;-50